Time;durP1;ratioP1;P1;durP2;ratioP2;P2;SDS_P1;SDS_P2;PMS_P1;PMS_P2;Temp;Humidity;BMP_temperature;BMP_pressure;BME280_temperature;BME280_humidity;BME280_pressure;Samples;Min_cycle;Max_cycle;Signal;HPM_P1;HPM_P2
2021/06/05 00:01:30;;;;;;;16.25;11.30;;;;;;;21.36;44.92;101500.91;3578991;40;20060;-73
2021/06/05 00:03:59;;;;;;;14.80;10.52;;;;;;;21.31;45.33;101504.25;3580211;40;20445;-73
2021/06/05 00:06:28;;;;;;;13.80;10.15;;;;;;;21.32;45.11;101506.00;3579096;40;20060;-74
2021/06/05 00:08:58;;;;;;;15.52;10.35;;;;;;;21.33;44.84;101507.69;3581371;40;20056;-73
2021/06/05 00:11:29;;;;;;;13.80;9.90;;;;;;;21.31;45.23;101503.38;3581716;40;20040;-73
2021/06/05 00:14:00;;;;;;;13.90;10.20;;;;;;;21.32;45.20;101507.91;3578347;40;20053;-74
2021/06/05 00:16:32;;;;;;;14.02;10.50;;;;;;;21.32;46.21;101502.34;3579048;40;20045;-73
2021/06/05 00:19:02;;;;;;;14.10;9.90;;;;;;;21.28;45.03;101507.41;3579162;40;20065;-73
2021/06/05 00:21:30;;;;;;;14.52;10.32;;;;;;;21.27;45.05;101499.22;3581856;40;20048;-73
2021/06/05 00:23:59;;;;;;;14.52;10.35;;;;;;;21.29;45.06;101492.44;3581941;40;20117;-73
2021/06/05 00:26:27;;;;;;;14.73;10.07;;;;;;;21.28;45.37;101499.06;3579147;40;20045;-73
2021/06/05 00:28:55;;;;;;;14.48;10.02;;;;;;;21.26;45.79;101503.06;3579432;40;20339;-73
2021/06/05 00:31:24;;;;;;;13.55;10.10;;;;;;;21.26;45.29;101503.06;3580039;40;20048;-73
2021/06/05 00:33:52;;;;;;;14.73;10.05;;;;;;;21.25;45.91;101510.53;3579234;40;20045;-73
2021/06/05 00:36:20;;;;;;;14.48;9.77;;;;;;;21.25;45.94;101504.97;3579196;40;20511;-73
2021/06/05 00:38:48;;;;;;;13.73;9.95;;;;;;;21.25;45.80;101507.75;3582740;40;20060;-73
2021/06/05 00:41:19;;;;;;;14.13;10.02;;;;;;;21.27;46.01;101519.56;3579252;40;20328;-73
2021/06/05 00:43:51;;;;;;;15.75;10.20;;;;;;;21.27;46.67;101515.94;3579440;40;20073;-73
2021/06/05 00:46:21;;;;;;;16.30;10.70;;;;;;;21.26;46.12;101519.75;3577884;40;20052;-73
2021/06/05 00:48:50;;;;;;;14.95;10.98;;;;;;;21.25;46.25;101526.38;3578872;40;20053;-73
2021/06/05 00:51:24;;;;;;;16.40;11.20;;;;;;;21.27;46.50;101530.72;3574368;40;20044;-73
2021/06/05 00:53:53;;;;;;;14.15;9.50;;;;;;;21.24;45.98;101524.66;3585205;40;20428;-73
2021/06/05 00:56:22;;;;;;;12.85;10.00;;;;;;;21.27;45.59;101522.34;3577949;40;20413;-74
2021/06/05 00:58:51;;;;;;;13.60;9.93;;;;;;;21.25;46.03;101518.88;3578122;40;20048;-73
2021/06/05 01:01:22;;;;;;;13.82;9.35;;;;;;;21.25;45.66;101521.69;3576235;40;20056;-73
2021/06/05 01:03:54;;;;;;;13.85;9.38;;;;;;;21.25;46.19;101529.16;3578017;40;20432;-73
2021/06/05 01:06:28;;;;;;;12.35;9.55;;;;;;;21.28;45.73;101526.88;3579965;40;20428;-73
2021/06/05 01:09:02;;;;;;;14.15;10.07;;;;;;;21.27;46.04;101513.16;3581272;40;20040;-73
2021/06/05 01:11:43;;;;;;;13.07;9.45;;;;;;;21.28;45.88;101520.44;3577949;40;20167;-73
2021/06/05 01:14:30;;;;;;;12.82;9.10;;;;;;;21.24;46.32;101524.66;3571640;40;20089;-74
2021/06/05 01:17:02;;;;;;;13.32;9.45;;;;;;;21.24;45.83;101517.19;3578316;40;20057;-74
2021/06/05 01:19:40;;;;;;;12.50;9.30;;;;;;;21.24;45.95;101519.97;3581858;40;20056;-74
2021/06/05 01:22:36;;;;;;;13.52;9.52;;;;;;;21.23;45.84;101503.47;3580167;40;20061;-74
2021/06/05 01:25:21;;;;;;;13.73;9.52;;;;;;;21.23;46.38;101500.69;3573888;40;20052;-74
2021/06/05 01:27:55;;;;;;;13.57;9.43;;;;;;;21.22;46.04;101499.81;3585410;40;20081;-74
2021/06/05 01:30:27;;;;;;;13.27;9.82;;;;;;;21.21;46.00;101495.28;3572332;40;20409;-74
2021/06/05 01:32:58;;;;;;;15.25;10.25;;;;;;;21.19;46.18;101499.31;3577270;40;20139;-73
2021/06/05 01:35:30;;;;;;;12.85;9.52;;;;;;;21.15;45.60;101497.97;3577867;40;20433;-73
2021/06/05 01:38:02;;;;;;;12.13;9.20;;;;;;;21.14;46.16;101504.56;3574864;40;20048;-72
2021/06/05 01:40:32;;;;;;;13.30;9.85;;;;;;;21.14;46.08;101510.13;3578697;40;20333;-72
2021/06/05 01:43:05;;;;;;;;;;;;;;;20.86;46.58;101516.22;3565811;40;20089;-72
2021/06/05 01:45:38;;;;;;;12.90;8.43;;;;;;;21.08;46.35;101515.38;3569452;40;19944;-72
2021/06/05 01:48:07;;;;;;;12.50;9.02;;;;;;;21.13;46.11;101511.19;3579978;40;20077;-72
2021/06/05 01:50:47;;;;;;;11.65;8.35;;;;;;;21.13;46.50;101514.84;3579639;40;20122;-72
2021/06/05 01:53:20;;;;;;;12.43;8.40;;;;;;;21.12;46.19;101521.44;3578000;40;20406;-72
2021/06/05 01:56:00;;;;;;;12.65;9.50;;;;;;;21.15;46.38;101514.66;3570670;40;20061;-73
2021/06/05 01:58:38;;;;;;;11.77;8.48;;;;;;;21.12;46.27;101517.78;3579204;40;20048;-73
2021/06/05 02:01:13;;;;;;;9.73;7.25;;;;;;;21.09;45.91;101519.03;3577176;40;20059;-72
2021/06/05 02:03:47;;;;;;;10.50;7.57;;;;;;;21.11;45.83;101519.72;3578735;40;20049;-72
2021/06/05 02:06:25;;;;;;;9.88;7.50;;;;;;;21.08;45.82;101517.28;3578433;40;20056;-72
2021/06/05 02:09:02;;;;;;;9.18;6.57;;;;;;;21.05;45.43;101512.13;3572404;40;20045;-72
2021/06/05 02:11:33;;;;;;;8.60;6.68;;;;;;;21.03;45.82;101514.22;3577119;40;21389;-73
2021/06/05 02:14:09;;;;;;;10.25;7.68;;;;;;;21.04;45.96;101515.94;3577631;40;20045;-72
2021/06/05 02:16:44;;;;;;;9.25;7.07;;;;;;;21.02;45.32;101505.00;3577607;40;20044;-73
2021/06/05 02:19:19;;;;;;;9.20;6.90;;;;;;;21.02;45.85;101515.25;3579589;40;20382;-72
2021/06/05 02:22:07;;;;;;;10.32;6.75;;;;;;;20.98;45.87;101511.13;3577815;40;20353;-72
2021/06/05 02:24:39;;;;;;;10.02;7.30;;;;;;;20.97;45.40;101503.84;3582776;40;20056;-72
2021/06/05 02:27:10;;;;;;;8.77;6.53;;;;;;;20.91;45.95;101499.84;3581001;40;20052;-72
2021/06/05 02:29:45;;;;;;;9.15;7.15;;;;;;;20.94;46.19;101495.84;3577383;40;20088;-72
2021/06/05 02:32:19;;;;;;;9.73;7.68;;;;;;;20.92;45.60;101514.63;3578141;40;20055;-72
2021/06/05 02:34:53;;;;;;;9.57;6.75;;;;;;;20.89;45.71;101506.69;3577334;40;20142;-72
2021/06/05 02:37:27;;;;;;;9.00;6.72;;;;;;;20.89;45.62;101510.31;3579890;40;20057;-73
2021/06/05 02:39:58;;;;;;;10.52;7.35;;;;;;;20.86;45.76;101507.00;3577310;40;20073;-73
2021/06/05 02:42:31;;;;;;;10.50;6.97;;;;;;;20.84;45.98;101503.53;3577200;40;20425;-74
2021/06/05 02:45:07;;;;;;;10.23;8.00;;;;;;;20.83;45.65;101508.22;3577266;40;20045;-75
2021/06/05 02:47:35;;;;;;;9.85;6.90;;;;;;;20.79;46.10;101514.34;3577230;40;20110;-74
2021/06/05 02:50:06;;;;;;;9.60;6.60;;;;;;;20.81;45.89;101506.69;3577267;40;20056;-75
2021/06/05 02:52:34;;;;;;;9.15;6.70;;;;;;;20.77;45.72;101508.09;3580697;40;20437;-74
2021/06/05 02:55:11;;;;;;;10.35;6.75;;;;;;;20.77;45.85;101513.66;3578558;40;20425;-74
2021/06/05 02:57:40;;;;;;;9.43;6.90;;;;;;;20.74;45.82;101512.13;3578862;40;20059;-75
2021/06/05 03:00:30;;;;;;;10.35;7.32;;;;;;;20.77;46.07;101510.88;3572727;40;20045;-75
2021/06/05 03:03:00;;;;;;;11.10;7.35;;;;;;;20.72;46.04;101510.56;3577084;40;20053;-75
2021/06/05 03:05:29;;;;;;;11.18;7.63;;;;;;;20.71;46.10;101512.50;3577118;40;20060;-74
2021/06/05 03:07:58;;;;;;;10.77;7.57;;;;;;;20.72;46.11;101513.34;3575711;40;20075;-74
2021/06/05 03:10:31;;;;;;;11.52;7.63;;;;;;;20.70;46.24;101514.41;3576888;40;20421;-74
2021/06/05 03:13:02;;;;;;;10.20;7.38;;;;;;;20.68;46.18;101513.72;3577053;40;20495;-74
2021/06/05 03:15:34;;;;;;;11.20;7.90;;;;;;;20.69;45.72;101515.44;3577080;40;20048;-74
2021/06/05 03:18:03;;;;;;;11.80;8.25;;;;;;;20.66;45.78;101514.97;3575987;40;20306;-73
2021/06/05 03:20:35;;;;;;;11.73;8.45;;;;;;;20.67;46.40;101511.97;3575631;40;20057;-73
2021/06/05 03:23:04;;;;;;;11.30;7.90;;;;;;;20.62;46.23;101508.88;3580764;40;20326;-73
2021/06/05 03:25:35;;;;;;;13.18;8.93;;;;;;;20.63;46.27;101512.53;3571418;40;20053;-74
2021/06/05 03:28:04;;;;;;;12.50;8.30;;;;;;;20.62;46.12;101514.44;3579317;40;20055;-73
2021/06/05 03:30:33;;;;;;;12.07;8.45;;;;;;;20.60;46.64;101513.75;3574828;40;20469;-73
2021/06/05 03:33:05;;;;;;;12.32;9.10;;;;;;;20.59;46.80;101514.81;3577004;40;20053;-73
2021/06/05 03:35:34;;;;;;;14.30;9.00;;;;;;;20.57;46.69;101504.94;3577996;40;20130;-73
2021/06/05 03:38:02;;;;;;;11.68;8.23;;;;;;;20.57;46.33;101518.84;3580917;40;20048;-73
2021/06/05 03:40:32;;;;;;;13.23;9.60;;;;;;;20.57;46.76;101524.41;3582249;40;20394;-73
2021/06/05 03:43:02;;;;;;;11.45;8.05;;;;;;;20.54;46.46;101517.28;3577372;40;20049;-73
2021/06/05 03:45:33;;;;;;;11.88;8.65;;;;;;;20.55;46.46;101510.69;3574360;40;20049;-73
2021/06/05 03:48:04;;;;;;;12.13;8.63;;;;;;;20.54;46.85;101520.06;3577168;40;20053;-73
2021/06/05 03:50:37;;;;;;;14.48;9.68;;;;;;;20.56;47.00;101517.09;3572763;40;20056;-73
2021/06/05 03:53:09;;;;;;;12.57;8.60;;;;;;;20.54;46.80;101516.41;3578932;40;20108;-73
2021/06/05 03:55:38;;;;;;;14.77;9.35;;;;;;;20.53;46.71;101509.97;3577030;40;20392;-73
2021/06/05 03:58:07;;;;;;;13.55;9.70;;;;;;;20.53;46.89;101506.34;3577488;40;20306;-73
2021/06/05 04:00:40;;;;;;;12.40;8.73;;;;;;;20.54;46.86;101497.81;3577424;40;20057;-73
2021/06/05 04:03:10;;;;;;;14.73;9.45;;;;;;;20.54;46.65;101499.72;3577509;40;20093;-73
2021/06/05 04:05:39;;;;;;;12.45;9.57;;;;;;;20.53;46.98;101501.66;3578273;40;20071;-73
2021/06/05 04:08:07;;;;;;;15.45;10.35;;;;;;;20.53;46.81;101500.78;3577345;40;20110;-73
2021/06/05 04:10:36;;;;;;;13.63;9.20;;;;;;;20.52;47.24;101499.91;3584144;40;20410;-73
2021/06/05 04:13:04;;;;;;;14.90;10.00;;;;;;;20.53;46.89;101492.44;3578714;40;20056;-73
2021/06/05 04:15:35;;;;;;;15.25;10.43;;;;;;;20.54;47.22;101496.94;3579722;40;20085;-73
2021/06/05 04:18:05;;;;;;;14.88;10.07;;;;;;;20.55;46.89;101495.91;3581547;40;20134;-72
2021/06/05 04:20:36;;;;;;;14.95;9.93;;;;;;;20.52;46.70;101497.13;3580563;40;20129;-73
2021/06/05 04:23:46;;;;;;;15.50;9.98;;;;;;;20.53;47.17;101495.22;3579910;40;20047;-73
2021/06/05 04:26:34;;;;;;;14.75;9.55;;;;;;;20.51;46.61;101498.16;3569450;40;20472;-73
2021/06/05 04:29:21;;;;;;;15.50;9.98;;;;;;;20.52;47.07;101499.91;3569071;40;20036;-73
2021/06/05 04:32:10;;;;;;;14.85;9.43;;;;;;;20.53;46.83;101498.88;3575523;40;20048;-73
2021/06/05 04:34:49;;;;;;;14.75;9.93;;;;;;;20.52;46.94;101496.25;3580948;40;20080;-73
2021/06/05 04:37:17;;;;;;;13.95;9.38;;;;;;;20.53;46.96;101495.22;3578728;40;20048;-73
2021/06/05 04:39:45;;;;;;;13.38;9.65;;;;;;;20.53;47.07;101493.31;3579124;40;20137;-73
2021/06/05 04:42:13;;;;;;;14.32;9.82;;;;;;;20.53;46.81;101487.75;3578921;40;20053;-73
2021/06/05 04:44:41;;;;;;;13.50;9.85;;;;;;;20.54;47.31;101488.63;3580885;40;20045;-73
2021/06/05 04:47:08;;;;;;;14.10;9.32;;;;;;;20.54;47.18;101488.63;3575649;40;20059;-73
2021/06/05 04:49:37;;;;;;;15.02;9.95;;;;;;;20.57;46.80;101488.25;3577848;40;20049;-72
2021/06/05 04:52:06;;;;;;;14.68;10.15;;;;;;;20.55;46.98;101488.44;3584304;40;20055;-73
2021/06/05 04:54:34;;;;;;;13.38;9.20;;;;;;;20.55;47.37;101490.34;3581527;40;20045;-73
2021/06/05 04:57:01;;;;;;;14.60;9.95;;;;;;;20.55;47.01;101482.88;3582713;40;20475;-74
2021/06/05 04:59:29;;;;;;;16.55;9.88;;;;;;;20.56;47.28;101494.88;3580064;40;20410;-73
2021/06/05 05:01:57;;;;;;;12.88;8.90;;;;;;;20.56;47.03;101484.63;3577707;40;20060;-73
2021/06/05 05:04:25;;;;;;;15.70;10.38;;;;;;;20.56;47.11;101481.84;3583661;40;20088;-73
2021/06/05 05:06:55;;;;;;;15.10;10.40;;;;;;;20.59;47.21;101487.00;3578822;40;20052;-73
2021/06/05 05:09:23;;;;;;;16.83;10.63;;;;;;;20.58;47.50;101481.66;3578724;40;20080;-73
2021/06/05 05:11:51;;;;;;;13.18;9.25;;;;;;;20.59;47.15;101480.56;3577708;40;20053;-73
2021/06/05 05:14:19;;;;;;;16.83;10.15;;;;;;;20.59;47.17;101481.44;3578561;40;20049;-73
2021/06/05 05:16:46;;;;;;;15.18;10.68;;;;;;;20.60;47.21;101488.75;3576868;40;20080;-73
2021/06/05 05:19:14;;;;;;;12.85;8.82;;;;;;;20.60;47.68;101491.53;3578536;40;20406;-73
2021/06/05 05:21:42;;;;;;;15.57;9.55;;;;;;;20.61;47.06;101498.81;3581766;40;20357;-73
2021/06/05 05:24:12;;;;;;;15.95;10.43;;;;;;;20.64;47.46;101504.03;3573348;40;20057;-73
2021/06/05 05:26:39;;;;;;;14.45;9.40;;;;;;;20.63;47.38;101507.84;3579602;40;20088;-73
2021/06/05 05:29:07;;;;;;;14.05;9.65;;;;;;;20.63;47.54;101509.75;3578201;40;20268;-73
2021/06/05 05:31:35;;;;;;;14.20;10.07;;;;;;;20.64;47.74;101503.16;3578358;40;20126;-73
2021/06/05 05:34:03;;;;;;;14.27;9.32;;;;;;;20.63;47.22;101507.84;3578691;40;20322;-73
2021/06/05 05:36:34;;;;;;;12.18;8.48;;;;;;;20.65;47.33;101505.75;3579201;40;20061;-73
2021/06/05 05:39:06;;;;;;;15.55;9.95;;;;;;;20.67;47.42;101506.41;3583301;40;20050;-73
2021/06/05 05:41:38;;;;;;;13.05;8.80;;;;;;;20.66;47.15;101506.63;3577635;40;20048;-73
2021/06/05 05:44:06;;;;;;;13.90;9.73;;;;;;;20.65;47.01;101502.09;3578119;40;20049;-73
2021/06/05 05:46:35;;;;;;;12.88;9.20;;;;;;;20.66;47.25;101510.28;3577023;40;20101;-73
2021/06/05 05:49:06;;;;;;;13.95;8.73;;;;;;;20.65;47.11;101510.44;3584222;40;20060;-73
2021/06/05 05:51:33;;;;;;;11.32;7.32;;;;;;;20.66;47.64;101507.50;3577429;40;20076;-73
2021/06/05 05:54:01;;;;;;;11.40;8.20;;;;;;;20.67;47.16;101516.66;3580447;40;20063;-74
2021/06/05 05:56:33;;;;;;;11.60;7.45;;;;;;;20.69;46.96;101514.59;3577285;40;20068;-73
2021/06/05 05:59:03;;;;;;;13.07;8.65;;;;;;;20.70;47.37;101517.19;3575729;40;20185;-73
2021/06/05 06:01:31;;;;;;;12.30;8.60;;;;;;;20.71;47.14;101526.38;3576889;40;20080;-74
2021/06/05 06:03:59;;;;;;;11.32;8.05;;;;;;;20.70;46.77;101528.31;3575058;40;20056;-73
2021/06/05 06:06:31;;;;;;;14.25;9.75;;;;;;;20.74;47.08;101530.72;3575232;40;20076;-73
2021/06/05 06:09:00;;;;;;;11.43;7.63;;;;;;;20.72;47.02;101532.81;3577395;40;20060;-73
2021/06/05 06:11:29;;;;;;;11.88;7.80;;;;;;;20.74;47.24;101534.38;3578110;40;20052;-74
2021/06/05 06:13:57;;;;;;;10.93;7.85;;;;;;;20.73;47.38;101532.63;3577960;40;20053;-73
2021/06/05 06:16:27;;;;;;;9.07;6.40;;;;;;;20.75;46.90;101536.09;3577285;40;20398;-74
2021/06/05 06:18:55;;;;;;;10.88;7.75;;;;;;;20.74;47.24;101536.28;3577315;40;20099;-74
2021/06/05 06:21:23;;;;;;;10.90;7.20;;;;;;;20.74;47.09;101531.59;3576574;40;20045;-74
2021/06/05 06:23:51;;;;;;;11.88;7.38;;;;;;;20.74;47.26;101539.06;3574524;40;20037;-73
2021/06/05 06:26:22;;;;;;;9.90;7.13;;;;;;;20.76;47.01;101543.38;3577565;40;20084;-74
2021/06/05 06:28:50;;;;;;;10.63;7.50;;;;;;;20.75;46.85;101549.16;3574911;40;20130;-74
2021/06/05 06:31:19;;;;;;;11.27;7.78;;;;;;;20.76;47.25;101548.06;3576408;40;20531;-74
2021/06/05 06:33:49;;;;;;;9.93;6.63;;;;;;;20.77;47.24;101558.16;3577494;40;20061;-74
2021/06/05 06:36:21;;;;;;;11.10;7.03;;;;;;;20.76;47.01;101556.41;3573716;40;20065;-74
2021/06/05 06:38:52;;;;;;;10.90;7.28;;;;;;;20.77;47.30;101552.59;3576138;40;20060;-74
2021/06/05 06:41:24;;;;;;;10.93;7.60;;;;;;;20.77;47.25;101563.72;3573824;40;20064;-74
2021/06/05 06:43:52;;;;;;;12.10;7.50;;;;;;;20.74;46.77;101561.31;3578604;40;20032;-73
2021/06/05 06:46:23;;;;;;;8.85;6.55;;;;;;;20.78;46.64;101565.44;3575615;40;23297;-74
2021/06/05 06:48:54;;;;;;;10.25;6.85;;;;;;;20.78;47.11;101568.22;3572078;40;20127;-74
2021/06/05 06:51:22;;;;;;;10.68;7.00;;;;;;;20.74;46.78;101564.09;3577269;40;20066;-75
2021/06/05 06:53:50;;;;;;;10.05;6.80;;;;;;;20.73;46.89;101560.44;3575215;40;20130;-74
2021/06/05 06:56:19;;;;;;;10.25;6.93;;;;;;;20.74;46.99;101570.53;3571512;40;20060;-74
2021/06/05 06:58:48;;;;;;;10.05;7.13;;;;;;;20.73;46.91;101571.56;3576736;40;20411;-74
2021/06/05 07:01:17;;;;;;;10.30;6.38;;;;;;;20.72;46.95;101580.94;3574836;40;20056;-74
2021/06/05 07:03:44;;;;;;;11.45;7.05;;;;;;;20.72;47.13;101574.53;3574173;40;20040;-74
2021/06/05 07:06:15;;;;;;;10.02;7.32;;;;;;;20.73;46.88;101573.47;3575591;40;20060;-74
2021/06/05 07:08:44;;;;;;;11.00;6.70;;;;;;;20.70;46.91;101581.13;3576355;40;20092;-74
2021/06/05 07:11:15;;;;;;;11.10;7.00;;;;;;;20.72;46.50;101580.09;3577075;40;20488;-74
2021/06/05 07:13:43;;;;;;;13.43;8.48;;;;;;;20.69;46.67;101584.09;3577470;40;20345;-74
2021/06/05 07:16:12;;;;;;;11.13;7.18;;;;;;;20.70;46.89;101588.59;3576643;40;20052;-74
2021/06/05 07:18:41;;;;;;;12.73;7.88;;;;;;;20.69;46.75;101586.88;3577265;40;20057;-74
2021/06/05 07:21:10;;;;;;;13.43;8.15;;;;;;;20.70;47.14;101592.25;3574832;40;20134;-74
2021/06/05 07:23:41;;;;;;;12.50;7.57;;;;;;;20.72;46.80;101588.44;3574651;40;20048;-74
2021/06/05 07:26:11;;;;;;;12.23;7.65;;;;;;;20.71;47.20;101590.34;3576877;40;20053;-73
2021/06/05 07:28:43;;;;;;;10.27;7.18;;;;;;;20.69;46.91;101596.06;3577671;40;20049;-75
2021/06/05 07:31:17;;;;;;;13.60;8.13;;;;;;;20.69;47.19;101601.63;3574421;40;20060;-74
2021/06/05 07:33:47;;;;;;;12.07;8.93;;;;;;;20.69;47.17;101598.84;3577264;40;20080;-75
2021/06/05 07:36:17;;;;;;;11.48;8.10;;;;;;;20.71;46.84;101593.13;3577518;40;20056;-74
2021/06/05 07:38:49;;;;;;;12.13;8.40;;;;;;;20.73;47.12;101599.38;3574707;40;20061;-75
2021/06/05 07:41:19;;;;;;;10.65;7.15;;;;;;;20.70;47.17;101602.50;3579958;40;20053;-76
2021/06/05 07:43:47;;;;;;;8.98;6.60;;;;;;;20.70;47.02;101600.59;3579170;40;20069;-75
2021/06/05 07:46:15;;;;;;;10.38;7.30;;;;;;;20.72;47.03;101603.19;3578861;40;20053;-74
2021/06/05 07:48:45;;;;;;;12.30;8.07;;;;;;;20.73;46.66;101595.72;3573516;40;20058;-74
2021/06/05 07:51:13;;;;;;;10.52;7.55;;;;;;;20.73;46.77;101604.06;3577434;40;20033;-74
2021/06/05 07:53:43;;;;;;;12.45;8.32;;;;;;;20.73;46.49;101593.81;3581341;40;20130;-75
2021/06/05 07:56:12;;;;;;;13.88;8.82;;;;;;;20.76;46.98;101610.09;3578342;40;20291;-75
2021/06/05 07:58:40;;;;;;;11.32;7.45;;;;;;;20.75;46.63;101607.53;3578382;40;20056;-76
2021/06/05 08:01:08;;;;;;;12.23;7.90;;;;;;;20.74;46.42;101605.81;3580010;40;20075;-74
2021/06/05 08:03:36;;;;;;;14.38;8.88;;;;;;;20.74;46.43;101597.47;3577832;40;20041;-74
2021/06/05 08:06:07;;;;;;;13.70;8.43;;;;;;;20.74;46.89;101594.69;3574108;40;20052;-75
2021/06/05 08:08:35;;;;;;;11.80;7.82;;;;;;;20.74;46.69;101603.03;3580039;40;20044;-74
2021/06/05 08:11:03;;;;;;;13.27;8.13;;;;;;;20.74;46.63;101605.81;3576611;40;20436;-74
2021/06/05 08:13:33;;;;;;;11.20;7.65;;;;;;;20.77;46.76;101602.63;3578531;40;20041;-73
2021/06/05 08:16:01;;;;;;;13.75;8.50;;;;;;;20.74;46.29;101605.81;3578706;40;20061;-73
2021/06/05 08:18:29;;;;;;;13.23;8.80;;;;;;;20.76;46.72;101598.13;3576449;40;21423;-74
2021/06/05 08:21:00;;;;;;;13.95;9.05;;;;;;;20.79;46.37;101595.00;3578134;40;20588;-74
2021/06/05 08:23:32;;;;;;;13.75;9.50;;;;;;;20.78;46.88;101596.03;3575566;40;20048;-75
2021/06/05 08:26:07;;;;;;;14.10;9.45;;;;;;;20.78;46.70;101593.25;3576302;40;20053;-75
2021/06/05 08:28:36;;;;;;;13.13;8.85;;;;;;;20.80;46.59;101589.25;3577323;40;20057;-75
2021/06/05 08:31:07;;;;;;;13.73;8.55;;;;;;;20.81;47.00;101591.00;3578414;40;20144;-75
2021/06/05 08:33:36;;;;;;;14.05;9.20;;;;;;;20.82;46.91;101591.84;3573282;40;20057;-75
2021/06/05 08:36:05;;;;;;;12.27;8.00;;;;;;;20.85;46.79;101599.81;3578628;40;20041;-75
2021/06/05 08:38:33;;;;;;;13.38;9.25;;;;;;;20.86;46.93;101596.84;3577873;40;20049;-75
2021/06/05 08:41:22;;;;;;;11.88;8.20;;;;;;;20.87;46.63;101589.38;3575721;40;20146;-75
2021/06/05 08:43:56;;;;;;;15.23;9.70;;;;;;;20.89;46.88;101593.75;3578404;40;20056;-75
2021/06/05 08:46:27;;;;;;;13.30;8.32;;;;;;;20.92;46.72;101590.59;3576138;40;20060;-74
2021/06/05 08:48:58;;;;;;;12.77;8.35;;;;;;;20.95;46.58;101593.00;3579452;40;20409;-75
2021/06/05 08:51:50;;;;;;;13.45;8.15;;;;;;;20.95;46.90;101587.44;3579397;40;20057;-75
2021/06/05 08:54:32;;;;;;;14.35;9.48;;;;;;;20.99;46.59;101593.53;3578610;40;20064;-74
2021/06/05 08:57:05;;;;;;;14.15;9.73;;;;;;;20.98;46.96;101591.78;3578527;40;20057;-75
2021/06/05 08:59:36;;;;;;;13.77;8.95;;;;;;;21.02;46.36;101602.34;3573834;40;20397;-75
2021/06/05 09:02:04;;;;;;;15.85;10.30;;;;;;;21.02;46.84;101599.56;3577628;40;20291;-74
2021/06/05 09:04:32;;;;;;;13.77;9.38;;;;;;;21.04;46.23;101593.84;3577324;40;20118;-75
2021/06/05 09:07:03;;;;;;;14.18;9.52;;;;;;;21.06;46.02;101602.88;3576610;40;20056;-74
2021/06/05 09:09:33;;;;;;;14.85;10.00;;;;;;;21.10;46.44;101601.44;3575594;40;20085;-74
2021/06/05 09:12:12;;;;;;;15.32;10.18;;;;;;;21.10;46.77;101598.66;3578227;40;20309;-74
2021/06/05 09:14:42;;;;;;;16.23;10.70;;;;;;;21.12;46.19;101602.13;3576935;40;20326;-74
2021/06/05 09:17:17;;;;;;;15.10;10.75;;;;;;;21.15;46.57;101595.34;3576857;40;20085;-74
2021/06/05 09:20:01;;;;;;;15.75;10.05;;;;;;;21.16;45.90;101602.63;3576640;40;20048;-75
2021/06/05 09:22:33;;;;;;;16.48;10.82;;;;;;;21.17;46.35;101601.56;3576024;40;20050;-75
2021/06/05 09:25:30;;;;;;;14.05;9.63;;;;;;;21.18;46.40;101601.38;3576999;40;20056;-74
2021/06/05 09:28:18;;;;;;;15.50;10.30;;;;;;;21.19;46.48;101593.91;3578003;40;20398;-74
2021/06/05 09:30:49;;;;;;;14.50;9.65;;;;;;;21.24;46.45;101594.22;3574417;40;20053;-75
2021/06/05 09:33:29;;;;;;;11.73;8.57;;;;;;;21.29;46.56;101597.31;3568544;40;20119;-74
2021/06/05 09:36:14;;;;;;;16.48;10.70;;;;;;;21.30;46.13;101593.47;3577815;40;20088;-75
2021/06/05 09:38:47;;;;;;;15.27;10.18;;;;;;;21.34;46.39;101592.91;3577845;40;21376;-76
2021/06/05 09:41:20;;;;;;;16.45;10.52;;;;;;;21.36;46.51;101589.94;3573723;40;20130;-75
2021/06/05 09:43:49;;;;;;;12.85;9.30;;;;;;;21.40;46.88;101594.13;3577960;40;20042;-74
2021/06/05 09:46:26;;;;;;;15.75;9.27;;;;;;;21.48;46.10;101596.84;3575147;40;20302;-74
2021/06/05 09:49:15;;;;;;;15.60;10.07;;;;;;;21.52;46.39;101600.09;3575126;40;20085;-74
2021/06/05 09:51:44;;;;;;;15.10;9.93;;;;;;;21.54;46.48;101598.00;3573595;40;20052;-74
2021/06/05 09:54:15;;;;;;;17.10;11.30;;;;;;;21.60;46.03;101609.28;3577929;40;20037;-74
2021/06/05 09:56:46;;;;;;;16.55;11.00;;;;;;;21.63;46.07;101605.25;3577240;40;20056;-75
2021/06/05 09:59:19;;;;;;;14.90;10.02;;;;;;;21.66;45.99;101602.94;3578942;40;20053;-73
2021/06/05 10:01:59;;;;;;;14.05;9.95;;;;;;;21.69;45.28;101607.28;3577769;40;20391;-75
2021/06/05 10:04:31;;;;;;;13.77;9.18;;;;;;;21.68;45.40;101602.75;3576768;40;20061;-74
2021/06/05 10:07:00;;;;;;;15.25;9.35;;;;;;;21.69;45.37;101601.72;3574156;40;20060;-74
2021/06/05 10:09:39;;;;;;;13.93;9.15;;;;;;;21.71;45.32;101603.28;3579803;40;20413;-74
2021/06/05 10:12:11;;;;;;;15.75;10.45;;;;;;;21.70;45.38;101612.69;3573386;40;20055;-75
2021/06/05 10:14:48;;;;;;;14.88;10.23;;;;;;;21.70;45.57;101604.31;3577219;40;20048;-73
2021/06/05 10:17:26;;;;;;;12.88;8.77;;;;;;;21.72;45.83;101612.50;3576764;40;20054;-74
2021/06/05 10:20:02;;;;;;;11.88;7.85;;;;;;;21.73;45.75;101614.22;3577559;40;20052;-74
2021/06/05 10:22:30;;;;;;;15.65;10.75;;;;;;;21.73;45.67;101611.44;3580133;40;20049;-74
2021/06/05 10:25:01;;;;;;;13.95;9.68;;;;;;;21.76;45.87;101611.03;3579540;40;20065;-72
2021/06/05 10:27:32;;;;;;;16.92;11.10;;;;;;;21.78;46.01;101617.31;3572836;40;20060;-75
2021/06/05 10:30:04;;;;;;;14.63;9.98;;;;;;;21.79;45.94;101613.47;3578430;40;20385;-73
2021/06/05 10:32:39;;;;;;;13.75;8.68;;;;;;;21.81;45.52;101614.16;3583015;40;20338;-73
2021/06/05 10:35:12;;;;;;;13.90;8.88;;;;;;;21.85;45.80;101620.19;3578649;40;20061;-73
2021/06/05 10:37:41;;;;;;;15.40;9.75;;;;;;;21.85;46.00;101623.84;3577772;40;20047;-73
2021/06/05 10:40:16;;;;;;;14.75;9.50;;;;;;;21.90;45.50;101615.81;3577245;40;20056;-72
2021/06/05 10:42:47;;;;;;;16.42;10.32;;;;;;;21.93;45.38;101618.19;3577641;40;20138;-73
2021/06/05 10:45:18;;;;;;;14.88;9.38;;;;;;;21.95;45.58;101620.81;3579050;40;20049;-72
2021/06/05 10:47:53;;;;;;;18.88;11.48;;;;;;;22.02;45.53;101618.97;3575815;40;20063;-72
2021/06/05 10:50:25;;;;;;;17.30;11.18;;;;;;;22.05;45.85;101610.25;3574241;40;20053;-73
2021/06/05 10:52:58;;;;;;;18.88;11.80;;;;;;;22.07;45.69;101616.47;3580977;40;20057;-73
2021/06/05 10:55:31;;;;;;;18.63;11.50;;;;;;;22.12;45.75;101617.66;3577261;40;20056;-73
2021/06/05 10:58:22;;;;;;;19.98;12.35;;;;;;;22.16;45.47;101626.50;3578327;40;20052;-74
2021/06/05 11:00:53;;;;;;;16.48;10.82;;;;;;;22.19;45.44;101615.84;3573520;40;20310;-74
2021/06/05 11:03:57;;;;;;;16.77;10.75;;;;;;;22.19;45.22;101617.75;3577780;40;20130;-73
2021/06/05 11:06:28;;;;;;;21.23;13.60;;;;;;;22.29;45.21;101612.81;3543460;40;20550;-74
2021/06/05 11:09:00;;;;;;;18.75;12.18;;;;;;;22.32;44.92;101612.41;3570953;40;20061;-73
2021/06/05 11:11:39;;;;;;;20.65;12.38;;;;;;;22.36;44.80;101610.13;3576746;40;20068;-74
2021/06/05 11:14:30;;;;;;;22.20;13.52;;;;;;;22.38;44.63;101616.38;3573311;40;20076;-74
2021/06/05 11:17:23;;;;;;;19.65;12.38;;;;;;;22.39;44.69;101605.03;3575940;40;20088;-73
2021/06/05 11:20:14;;;;;;;16.52;10.77;;;;;;;22.39;44.55;101612.53;3575725;40;20051;-73
2021/06/05 11:23:09;;;;;;;21.92;13.85;;;;;;;22.39;44.30;101607.81;3570427;40;20041;-77
2021/06/05 11:25:41;;;;;;;24.95;15.10;;;;;;;22.44;44.58;101607.25;3577125;40;20051;-74
2021/06/05 11:28:44;;;;;;;24.58;15.63;;;;;;;22.40;44.41;101611.44;3572927;40;20049;-75
2021/06/05 11:31:40;;;;;;;23.85;15.45;;;;;;;22.42;44.09;101618.56;3573828;40;20064;-74
2021/06/05 11:34:11;;;;;;;24.02;14.02;;;;;;;22.44;44.33;101608.09;3571491;40;20082;-74
2021/06/05 11:36:44;;;;;;;22.25;14.43;;;;;;;22.46;44.46;101614.34;3578444;40;20040;-74
2021/06/05 11:39:29;;;;;;;23.50;13.77;;;;;;;22.46;44.19;101619.94;3573892;40;20084;-75
2021/06/05 11:41:59;;;;;;;22.80;13.40;;;;;;;22.46;44.26;101621.84;3577599;40;20053;-74